Time;durP1;ratioP1;P1;durP2;ratioP2;P2;SDS_P1;SDS_P2;PMS_P1;PMS_P2;Temp;Humidity;BMP_temperature;BMP_pressure;BME280_temperature;BME280_humidity;BME280_pressure;Samples;Min_cycle;Max_cycle;Signal;HPM_P1;HPM_P2
2022/07/19 00:02:04;;;;;;;12.07;2.80;;;;;;;;;;5110384;28;20020;-85
2022/07/19 00:04:30;;;;;;;7.85;2.50;;;;;;;;;;5111202;28;20117;-84
2022/07/19 00:06:55;;;;;;;9.82;2.78;;;;;;;;;;5104666;28;20028;-85
2022/07/19 00:09:22;;;;;;;6.90;2.60;;;;;;;;;;5110906;28;20028;-85
2022/07/19 00:11:48;;;;;;;9.57;2.70;;;;;;;;;;5114953;28;20063;-83
2022/07/19 00:14:13;;;;;;;13.18;2.60;;;;;;;;;;5112120;28;20023;-84
2022/07/19 00:16:39;;;;;;;7.45;2.90;;;;;;;;;;5117296;28;20028;-83
2022/07/19 00:19:04;;;;;;;8.95;2.60;;;;;;;;;;5092386;28;20019;-84
2022/07/19 00:21:29;;;;;;;6.90;2.67;;;;;;;;;;5105087;28;20024;-85
2022/07/19 00:23:55;;;;;;;8.10;2.50;;;;;;;;;;5110630;28;20028;-84
2022/07/19 00:26:20;;;;;;;7.03;2.63;;;;;;;;;;5110789;28;20133;-82
2022/07/19 00:28:46;;;;;;;7.97;2.50;;;;;;;;;;5104193;28;20031;-83
2022/07/19 00:31:11;;;;;;;7.28;2.90;;;;;;;;;;5104438;28;20016;-84
2022/07/19 00:33:36;;;;;;;8.18;2.70;;;;;;;;;;5120471;28;20018;-85
2022/07/19 00:36:02;;;;;;;7.00;2.35;;;;;;;;;;5121536;28;20024;-84
2022/07/19 00:38:28;;;;;;;20.08;2.90;;;;;;;;;;5104589;28;20016;-83
2022/07/19 00:40:53;;;;;;;5.80;2.60;;;;;;;;;;5118916;28;20032;-84
2022/07/19 00:43:19;;;;;;;7.53;2.42;;;;;;;;;;5116619;28;20024;-84
2022/07/19 00:45:44;;;;;;;10.90;2.45;;;;;;;;;;5116036;28;20083;-84
2022/07/19 00:48:09;;;;;;;6.30;2.40;;;;;;;;;;5110273;28;20111;-84
2022/07/19 00:50:35;;;;;;;9.95;2.40;;;;;;;;;;5110432;28;20023;-85
2022/07/19 00:53:04;;;;;;;7.30;2.78;;;;;;;;;;5103447;28;20254;-85
2022/07/19 00:55:32;;;;;;;9.02;2.70;;;;;;;;;;5110445;28;20085;-85
2022/07/19 00:57:58;;;;;;;7.57;2.60;;;;;;;;;;5113408;28;20051;-83
2022/07/19 01:00:25;;;;;;;10.75;2.42;;;;;;;;;;5123436;28;20023;-84
2022/07/19 01:02:51;;;;;;;9.90;2.95;;;;;;;;;;5117011;28;20028;-83
2022/07/19 01:05:17;;;;;;;7.78;2.72;;;;;;;;;;5122954;28;20316;-85
2022/07/19 01:07:43;;;;;;;9.52;2.63;;;;;;;;;;5123157;28;20062;-84
2022/07/19 01:10:11;;;;;;;7.18;2.60;;;;;;;;;;5122723;28;20312;-85
2022/07/19 01:12:37;;;;;;;11.30;2.60;;;;;;;;;;5098927;28;20027;-85
2022/07/19 01:15:21;;;;;;;11.98;2.50;;;;;;;;;;5117914;28;20031;-85
2022/07/19 01:17:48;;;;;;;10.60;3.00;;;;;;;;;;5118550;28;20024;-82
2022/07/19 01:20:14;;;;;;;7.30;2.38;;;;;;;;;;5121844;28;20207;-84
2022/07/19 01:22:42;;;;;;;9.85;2.55;;;;;;;;;;5122963;28;20016;-84
2022/07/19 01:25:08;;;;;;;8.23;2.40;;;;;;;;;;5122946;28;20024;-85
2022/07/19 01:27:49;;;;;;;12.65;2.42;;;;;;;;;;5122571;28;20023;-83
2022/07/19 01:30:26;;;;;;;9.18;2.50;;;;;;;;;;5122674;28;20088;-85
2022/07/19 01:32:52;;;;;;;10.63;2.80;;;;;;;;;;5114248;28;20019;-85
2022/07/19 01:35:19;;;;;;;7.75;2.50;;;;;;;;;;5122774;28;20216;-85
2022/07/19 01:37:44;;;;;;;8.75;2.60;;;;;;;;;;5116340;28;20022;-84
2022/07/19 01:40:12;;;;;;;8.45;2.60;;;;;;;;;;5122744;28;20023;-84
2022/07/19 01:42:38;;;;;;;7.15;2.50;;;;;;;;;;5122555;28;20020;-85
2022/07/19 01:45:05;;;;;;;11.23;2.60;;;;;;;;;;5122276;28;20024;-84
2022/07/19 01:47:30;;;;;;;10.90;2.60;;;;;;;;;;5122296;28;20122;-85
2022/07/19 01:49:55;;;;;;;43.88;4.35;;;;;;;;;;5122629;28;20043;-85
2022/07/19 01:52:21;;;;;;;38.17;4.68;;;;;;;;;;5122351;28;20023;-86
2022/07/19 01:54:46;;;;;;;21.10;3.28;;;;;;;;;;5122558;28;20051;-85
2022/07/19 01:57:12;;;;;;;15.05;2.85;;;;;;;;;;5122331;28;20031;-84
2022/07/19 01:59:37;;;;;;;17.02;3.00;;;;;;;;;;5122253;28;20076;-85
2022/07/19 02:02:03;;;;;;;14.68;2.88;;;;;;;;;;5121787;28;20322;-85
2022/07/19 02:04:30;;;;;;;12.18;2.70;;;;;;;;;;5116310;28;20028;-84
2022/07/19 02:06:56;;;;;;;9.93;2.50;;;;;;;;;;5117901;28;21875;-85
2022/07/19 02:09:21;;;;;;;13.20;2.60;;;;;;;;;;5115384;28;20031;-85
2022/07/19 02:11:46;;;;;;;8.15;2.60;;;;;;;;;;5121403;28;20387;-85
2022/07/19 02:14:12;;;;;;;9.43;2.80;;;;;;;;;;5120733;28;20090;-86
2022/07/19 02:16:38;;;;;;;9.10;2.72;;;;;;;;;;5108846;28;20316;-85
2022/07/19 02:19:05;;;;;;;6.88;2.67;;;;;;;;;;5121401;28;20023;-83
2022/07/19 02:21:31;;;;;;;6.95;2.60;;;;;;;;;;5121926;28;20026;-86
2022/07/19 02:23:57;;;;;;;16.05;2.58;;;;;;;;;;5121494;28;20022;-85
2022/07/19 02:26:23;;;;;;;10.38;2.60;;;;;;;;;;5122117;28;20047;-84
2022/07/19 02:28:49;;;;;;;8.15;2.33;;;;;;;;;;5121814;28;20074;-85
2022/07/19 02:31:14;;;;;;;10.55;2.78;;;;;;;;;;5115277;28;20193;-86
2022/07/19 02:33:40;;;;;;;7.35;2.47;;;;;;;;;;5121794;28;20019;-84
2022/07/19 02:36:05;;;;;;;10.40;2.70;;;;;;;;;;5118780;28;20324;-87
2022/07/19 02:38:31;;;;;;;12.93;2.67;;;;;;;;;;5111968;28;20026;-84
2022/07/19 02:40:57;;;;;;;8.32;2.40;;;;;;;;;;5117585;28;20042;-84
2022/07/19 02:43:22;;;;;;;10.32;2.35;;;;;;;;;;5118372;28;20035;-84
2022/07/19 02:45:47;;;;;;;5.28;2.10;;;;;;;;;;5116348;28;20059;-86
2022/07/19 02:48:13;;;;;;;10.40;2.53;;;;;;;;;;5116940;28;20058;-86
2022/07/19 02:50:40;;;;;;;8.00;2.63;;;;;;;;;;5121702;28;20019;-86
2022/07/19 02:53:05;;;;;;;8.63;2.40;;;;;;;;;;5121359;28;20024;-86
2022/07/19 02:55:31;;;;;;;8.40;2.40;;;;;;;;;;5109794;28;20027;-85
2022/07/19 02:57:56;;;;;;;10.30;2.70;;;;;;;;;;5119568;28;20035;-86
2022/07/19 03:00:22;;;;;;;7.32;2.25;;;;;;;;;;5121541;28;20034;-85
2022/07/19 03:02:47;;;;;;;5.80;2.25;;;;;;;;;;5114934;28;20016;-86
2022/07/19 03:05:12;;;;;;;8.75;2.40;;;;;;;;;;5112246;28;20224;-83
2022/07/19 03:07:38;;;;;;;8.50;2.60;;;;;;;;;;5119835;28;20415;-86
2022/07/19 03:10:04;;;;;;;10.23;2.40;;;;;;;;;;5115477;28;20020;-85
2022/07/19 03:12:30;;;;;;;7.43;2.45;;;;;;;;;;5109812;28;20285;-83
2022/07/19 03:14:55;;;;;;;6.80;2.20;;;;;;;;;;5117151;28;20020;-84
2022/07/19 03:17:20;;;;;;;8.63;2.20;;;;;;;;;;5109333;28;20023;-85
2022/07/19 03:19:46;;;;;;;15.27;2.58;;;;;;;;;;5114436;28;20064;-81
2022/07/19 03:22:12;;;;;;;8.05;2.38;;;;;;;;;;5120935;28;20027;-83
2022/07/19 03:24:37;;;;;;;8.23;2.53;;;;;;;;;;5121019;28;20024;-83
2022/07/19 03:27:03;;;;;;;9.88;2.90;;;;;;;;;;5117838;28;20027;-81
2022/07/19 03:29:28;;;;;;;15.68;2.78;;;;;;;;;;5121077;28;20312;-84
2022/07/19 03:31:54;;;;;;;9.38;2.50;;;;;;;;;;5114933;28;20109;-82
2022/07/19 03:34:19;;;;;;;6.85;2.67;;;;;;;;;;5117444;28;20027;-84
2022/07/19 03:36:44;;;;;;;14.23;2.67;;;;;;;;;;5125018;28;20297;-84
2022/07/19 03:39:10;;;;;;;12.40;3.28;;;;;;;;;;5124757;28;20016;-84
2022/07/19 03:41:35;;;;;;;6.75;2.42;;;;;;;;;;5124501;28;20055;-83
2022/07/19 03:44:00;;;;;;;10.07;2.90;;;;;;;;;;5124702;28;20065;-85
2022/07/19 03:46:28;;;;;;;9.38;3.03;;;;;;;;;;5122721;28;20396;-88
2022/07/19 03:48:53;;;;;;;6.88;2.80;;;;;;;;;;5106696;28;20046;-84
2022/07/19 03:51:19;;;;;;;10.45;2.70;;;;;;;;;;5123068;28;20031;-84
2022/07/19 03:53:45;;;;;;;5.47;2.67;;;;;;;;;;5113273;28;20032;-82
2022/07/19 03:56:10;;;;;;;9.45;2.53;;;;;;;;;;5117743;28;20538;-82
2022/07/19 03:58:36;;;;;;;9.40;2.50;;;;;;;;;;5112570;28;20095;-81
2022/07/19 04:01:02;;;;;;;11.68;2.80;;;;;;;;;;5111205;28;20418;-84
2022/07/19 04:03:27;;;;;;;7.00;3.00;;;;;;;;;;5118237;28;20023;-84
2022/07/19 04:05:52;;;;;;;13.27;3.20;;;;;;;;;;5116956;28;20039;-83
2022/07/19 04:08:18;;;;;;;11.63;3.15;;;;;;;;;;5112801;28;20217;-84
2022/07/19 04:10:43;;;;;;;17.60;3.25;;;;;;;;;;5121341;28;20063;-84
2022/07/19 04:13:08;;;;;;;83.80;5.65;;;;;;;;;;5118686;28;20024;-81
2022/07/19 04:15:34;;;;;;;36.80;4.53;;;;;;;;;;5121675;28;20072;-82
2022/07/19 04:17:59;;;;;;;24.05;3.47;;;;;;;;;;5112493;28;20061;-82
2022/07/19 04:20:25;;;;;;;18.30;3.95;;;;;;;;;;5108676;28;20267;-82
2022/07/19 04:22:50;;;;;;;9.57;2.80;;;;;;;;;;5116353;28;20019;-83
2022/07/19 04:25:16;;;;;;;13.52;3.08;;;;;;;;;;5120303;28;20031;-83
2022/07/19 04:27:41;;;;;;;18.58;2.95;;;;;;;;;;5123392;28;20468;-83
2022/07/19 04:30:07;;;;;;;46.58;4.32;;;;;;;;;;5105944;28;20015;-84
2022/07/19 04:32:33;;;;;;;48.72;5.15;;;;;;;;;;5122247;28;20024;-83
2022/07/19 04:35:00;;;;;;;37.17;4.40;;;;;;;;;;5121088;28;20095;-83
2022/07/19 04:37:25;;;;;;;54.53;4.65;;;;;;;;;;5119074;28;20070;-84
2022/07/19 04:39:51;;;;;;;66.93;5.82;;;;;;;;;;5116513;28;20039;-85
2022/07/19 04:42:16;;;;;;;54.97;5.10;;;;;;;;;;5120604;28;20020;-79
2022/07/19 04:44:41;;;;;;;31.58;4.00;;;;;;;;;;5116229;28;20040;-86
2022/07/19 04:47:07;;;;;;;17.42;3.20;;;;;;;;;;5120992;28;20066;-87
2022/07/19 04:49:32;;;;;;;17.45;3.10;;;;;;;;;;5119168;28;20027;-86
2022/07/19 04:51:58;;;;;;;25.17;3.80;;;;;;;;;;5105915;28;20035;-83
2022/07/19 04:54:23;;;;;;;29.40;3.60;;;;;;;;;;5122803;28;20140;-80
2022/07/19 04:56:48;;;;;;;18.05;3.47;;;;;;;;;;5116681;28;20212;-78
2022/07/19 04:59:14;;;;;;;10.93;3.10;;;;;;;;;;5111589;28;20102;-81
2022/07/19 05:01:40;;;;;;;7.38;3.15;;;;;;;;;;5090544;28;20020;-72
2022/07/19 05:04:05;;;;;;;11.90;2.90;;;;;;;;;;5104221;28;20020;-74
2022/07/19 05:06:30;;;;;;;47.58;5.13;;;;;;;;;;5114383;28;20086;-73
2022/07/19 05:08:56;;;;;;;82.28;6.55;;;;;;;;;;5121632;28;20215;-73
2022/07/19 05:11:22;;;;;;;137.52;9.25;;;;;;;;;;5121978;28;20185;-73
2022/07/19 05:13:47;;;;;;;142.00;10.23;;;;;;;;;;5122379;28;20019;-73
2022/07/19 05:16:12;;;;;;;75.25;5.85;;;;;;;;;;5122173;28;20046;-72
2022/07/19 05:18:38;;;;;;;120.85;7.90;;;;;;;;;;5121638;28;20432;-72
2022/07/19 05:21:03;;;;;;;62.30;5.70;;;;;;;;;;5122335;28;20019;-73
2022/07/19 05:23:29;;;;;;;19.05;3.55;;;;;;;;;;5121829;28;20024;-73
2022/07/19 05:25:54;;;;;;;11.85;3.45;;;;;;;;;;5122572;28;20043;-73
2022/07/19 05:28:19;;;;;;;18.98;3.53;;;;;;;;;;5122164;28;20031;-73
2022/07/19 05:30:47;;;;;;;13.02;3.60;;;;;;;;;;5122316;28;20367;-74
2022/07/19 05:33:13;;;;;;;81.75;6.75;;;;;;;;;;5122329;28;20064;-73
2022/07/19 05:35:39;;;;;;;126.28;8.90;;;;;;;;;;5122242;28;20024;-73
2022/07/19 05:38:04;;;;;;;71.82;6.07;;;;;;;;;;5121979;28;20250;-73
2022/07/19 05:40:29;;;;;;;12.95;3.42;;;;;;;;;;5121994;28;20300;-73
2022/07/19 05:42:55;;;;;;;13.38;3.10;;;;;;;;;;5122387;28;20126;-73
2022/07/19 05:45:20;;;;;;;23.48;3.75;;;;;;;;;;5121898;28;20073;-73
2022/07/19 05:47:45;;;;;;;17.25;3.53;;;;;;;;;;5121803;28;20038;-72
2022/07/19 05:50:11;;;;;;;11.30;3.20;;;;;;;;;;5122300;28;20043;-72
2022/07/19 05:52:36;;;;;;;13.45;3.47;;;;;;;;;;5121693;28;20023;-73
2022/07/19 05:55:02;;;;;;;12.75;3.80;;;;;;;;;;5122024;28;20019;-73
2022/07/19 05:57:27;;;;;;;12.40;3.42;;;;;;;;;;5121711;28;20226;-72
2022/07/19 05:59:53;;;;;;;9.60;3.15;;;;;;;;;;5121752;28;20026;-73
2022/07/19 06:02:19;;;;;;;11.35;3.17;;;;;;;;;;5121886;28;20023;-74
2022/07/19 06:04:45;;;;;;;12.05;3.05;;;;;;;;;;5111768;28;20104;-74
2022/07/19 06:07:10;;;;;;;8.32;3.30;;;;;;;;;;5120736;28;20031;-74
2022/07/19 06:09:36;;;;;;;13.88;3.50;;;;;;;;;;5121417;28;20030;-73
2022/07/19 06:12:01;;;;;;;10.45;3.28;;;;;;;;;;5115287;28;20023;-73
2022/07/19 06:14:26;;;;;;;8.60;3.08;;;;;;;;;;5102817;28;20026;-73
2022/07/19 06:16:53;;;;;;;13.48;3.40;;;;;;;;;;5121756;28;20076;-73
2022/07/19 06:19:19;;;;;;;13.70;3.35;;;;;;;;;;5091565;28;20078;-73
2022/07/19 06:21:44;;;;;;;7.38;3.00;;;;;;;;;;5121468;28;20023;-72
2022/07/19 06:24:10;;;;;;;8.35;3.30;;;;;;;;;;5121233;28;20027;-73
2022/07/19 06:26:35;;;;;;;13.95;3.55;;;;;;;;;;5121477;28;20341;-73
2022/07/19 06:29:00;;;;;;;7.72;3.33;;;;;;;;;;5121310;28;20279;-73
2022/07/19 06:31:26;;;;;;;8.98;3.28;;;;;;;;;;5121350;28;20026;-74
2022/07/19 06:33:51;;;;;;;8.43;3.53;;;;;;;;;;5121288;28;20320;-73
2022/07/19 06:36:18;;;;;;;13.57;3.90;;;;;;;;;;5121328;28;20255;-73
2022/07/19 06:38:44;;;;;;;13.13;3.83;;;;;;;;;;5120717;28;20028;-73
2022/07/19 06:41:10;;;;;;;11.00;3.67;;;;;;;;;;5121408;28;20035;-73
2022/07/19 06:43:36;;;;;;;13.65;3.42;;;;;;;;;;5121302;28;20034;-73
2022/07/19 06:46:01;;;;;;;10.68;3.72;;;;;;;;;;5121524;28;20253;-73
2022/07/19 06:48:27;;;;;;;15.60;3.80;;;;;;;;;;5120966;28;20036;-73
2022/07/19 06:50:52;;;;;;;8.30;3.53;;;;;;;;;;5120967;28;20192;-74
2022/07/19 06:53:18;;;;;;;11.90;3.55;;;;;;;;;;5116450;28;20024;-73
2022/07/19 06:55:43;;;;;;;11.52;3.67;;;;;;;;;;5121046;28;20095;-74
2022/07/19 06:58:09;;;;;;;7.75;3.35;;;;;;;;;;5116126;28;20023;-73
2022/07/19 07:00:34;;;;;;;10.43;3.75;;;;;;;;;;5115363;28;20023;-73
2022/07/19 07:03:00;;;;;;;12.13;3.72;;;;;;;;;;5119333;28;20030;-72
2022/07/19 07:05:25;;;;;;;12.65;4.00;;;;;;;;;;5114151;28;20224;-73
2022/07/19 07:07:52;;;;;;;7.65;3.65;;;;;;;;;;5120896;28;20035;-73
2022/07/19 07:10:17;;;;;;;7.75;3.78;;;;;;;;;;5124278;28;20020;-72
2022/07/19 07:12:43;;;;;;;10.43;3.70;;;;;;;;;;5118707;28;20023;-73
2022/07/19 07:15:09;;;;;;;11.68;3.70;;;;;;;;;;5124947;28;20027;-74
2022/07/19 07:17:36;;;;;;;12.98;3.85;;;;;;;;;;5125430;28;20363;-72
2022/07/19 07:20:03;;;;;;;11.57;3.78;;;;;;;;;;5125064;28;20027;-72
2022/07/19 07:22:28;;;;;;;13.60;4.18;;;;;;;;;;5124799;28;20043;-73
2022/07/19 07:24:54;;;;;;;21.38;4.00;;;;;;;;;;5124930;28;20368;-74
2022/07/19 07:27:19;;;;;;;14.05;3.85;;;;;;;;;;5125247;28;20319;-72
2022/07/19 07:29:44;;;;;;;18.20;3.97;;;;;;;;;;5124567;28;20023;-73
2022/07/19 07:32:10;;;;;;;17.42;4.20;;;;;;;;;;5124775;28;20087;-73
2022/07/19 07:34:35;;;;;;;12.27;4.20;;;;;;;;;;5124383;28;20100;-73
2022/07/19 07:37:00;;;;;;;14.68;4.03;;;;;;;;;;5117971;28;20102;-73
2022/07/19 07:39:26;;;;;;;13.38;4.00;;;;;;;;;;5124891;28;20026;-73
2022/07/19 07:41:51;;;;;;;11.93;3.83;;;;;;;;;;5124474;28;20073;-72
2022/07/19 07:44:16;;;;;;;15.27;4.03;;;;;;;;;;5124755;28;20030;-72
2022/07/19 07:46:42;;;;;;;16.20;4.05;;;;;;;;;;5124330;28;20019;-73
2022/07/19 07:49:07;;;;;;;14.25;3.95;;;;;;;;;;5124017;28;20046;-73
2022/07/19 07:51:33;;;;;;;10.75;3.90;;;;;;;;;;5124365;28;20019;-73
2022/07/19 07:53:59;;;;;;;13.60;4.20;;;;;;;;;;5124195;28;20019;-74
2022/07/19 07:56:25;;;;;;;10.13;3.85;;;;;;;;;;5124563;28;20015;-72
2022/07/19 07:58:51;;;;;;;9.50;4.07;;;;;;;;;;5106069;28;20132;-72
2022/07/19 08:01:16;;;;;;;17.33;3.78;;;;;;;;;;5124280;28;20020;-72
2022/07/19 08:03:42;;;;;;;12.60;4.10;;;;;;;;;;5123788;28;20243;-73
2022/07/19 08:06:07;;;;;;;9.40;3.70;;;;;;;;;;5117406;28;20027;-73
2022/07/19 08:08:33;;;;;;;10.35;3.97;;;;;;;;;;5123938;28;20035;-74
2022/07/19 08:10:58;;;;;;;12.60;3.65;;;;;;;;;;5124006;28;20027;-73
2022/07/19 08:13:23;;;;;;;12.55;3.92;;;;;;;;;;5117387;28;20074;-72
2022/07/19 08:15:50;;;;;;;16.58;4.07;;;;;;;;;;5123711;28;20246;-73
2022/07/19 08:18:16;;;;;;;9.95;4.10;;;;;;;;;;5123949;28;20047;-73
2022/07/19 08:20:42;;;;;;;17.25;3.92;;;;;;;;;;5123222;28;20024;-72
2022/07/19 08:23:07;;;;;;;10.48;3.85;;;;;;;;;;5123492;28;20019;-72
2022/07/19 08:25:34;;;;;;;10.77;4.10;;;;;;;;;;5123528;28;20026;-72
2022/07/19 08:28:00;;;;;;;17.20;3.70;;;;;;;;;;5123593;28;20023;-72
2022/07/19 08:30:25;;;;;;;13.00;3.85;;;;;;;;;;5112421;28;20027;-72
2022/07/19 08:32:51;;;;;;;12.25;3.88;;;;;;;;;;5123825;28;20038;-72
2022/07/19 08:35:16;;;;;;;11.65;4.10;;;;;;;;;;5123663;28;20210;-73
2022/07/19 08:37:41;;;;;;;10.48;3.92;;;;;;;;;;5117122;28;20032;-72
2022/07/19 08:40:07;;;;;;;12.35;3.78;;;;;;;;;;5123072;28;20027;-72
2022/07/19 08:42:33;;;;;;;14.07;4.10;;;;;;;;;;5123671;28;20111;-72
2022/07/19 08:45:06;;;;;;;15.60;4.07;;;;;;;;;;5123636;28;20042;-73
2022/07/19 08:47:32;;;;;;;9.25;3.45;;;;;;;;;;5123009;28;20069;-72
2022/07/19 08:50:02;;;;;;;11.98;3.60;;;;;;;;;;5123286;28;20224;-73
2022/07/19 08:52:27;;;;;;;13.15;4.00;;;;;;;;;;5123192;28;20015;-73
2022/07/19 08:54:55;;;;;;;10.45;3.80;;;;;;;;;;5122818;28;20310;-73
2022/07/19 09:00:05;;;;;;;10.77;4.13;;;;;;;;;;5117618;28;20111;-72
2022/07/19 09:02:31;;;;;;;8.25;3.65;;;;;;;;;;5116512;28;20031;-73
2022/07/19 09:05:07;;;;;;;8.68;3.90;;;;;;;;;;5116626;28;20091;-72
2022/07/19 09:07:37;;;;;;;10.93;3.95;;;;;;;;;;5104634;28;20269;-72
2022/07/19 09:10:22;;;;;;;12.80;4.28;;;;;;;;;;5122675;28;20027;-72
2022/07/19 09:13:15;;;;;;;8.63;3.60;;;;;;;;;;5119457;28;20037;-72
2022/07/19 09:15:51;;;;;;;8.95;4.03;;;;;;;;;;5116253;28;20065;-72
2022/07/19 09:18:26;;;;;;;12.32;4.50;;;;;;;;;;5111006;28;20035;-72
2022/07/19 09:20:57;;;;;;;10.10;4.03;;;;;;;;;;5122771;28;20035;-73
2022/07/19 09:23:23;;;;;;;15.52;4.00;;;;;;;;;;5112513;28;20418;-73
2022/07/19 09:25:54;;;;;;;13.15;4.20;;;;;;;;;;5122527;28;20035;-72
2022/07/19 09:28:21;;;;;;;7.10;3.70;;;;;;;;;;5122184;28;20322;-73
2022/07/19 09:30:49;;;;;;;9.45;3.85;;;;;;;;;;5122565;28;20216;-73
2022/07/19 09:33:26;;;;;;;11.38;4.00;;;;;;;;;;5121636;28;20315;-73
2022/07/19 09:35:54;;;;;;;9.52;3.80;;;;;;;;;;5122687;28;20088;-72
2022/07/19 09:38:30;;;;;;;7.78;3.75;;;;;;;;;;5122276;28;20035;-72
2022/07/19 09:41:18;;;;;;;12.85;3.85;;;;;;;;;;5122622;28;20090;-72
2022/07/19 09:43:59;;;;;;;10.23;3.88;;;;;;;;;;5110371;28;20323;-73
2022/07/19 09:46:31;;;;;;;8.10;3.67;;;;;;;;;;5121959;28;20258;-73
2022/07/19 09:49:12;;;;;;;12.32;4.00;;;;;;;;;;5122313;28;20042;-72
2022/07/19 09:51:52;;;;;;;17.00;4.63;;;;;;;;;;5121903;28;20094;-74
2022/07/19 09:54:19;;;;;;;11.23;3.72;;;;;;;;;;5111130;28;20042;-72
2022/07/19 09:56:46;;;;;;;11.93;3.70;;;;;;;;;;5122117;28;20035;-74
2022/07/19 09:59:13;;;;;;;14.70;3.70;;;;;;;;;;5122169;28;20297;-72
2022/07/19 10:01:40;;;;;;;8.18;3.75;;;;;;;;;;5122322;28;20132;-73
2022/07/19 10:04:11;;;;;;;9.00;3.75;;;;;;;;;;5115211;28;20065;-76
2022/07/19 10:06:38;;;;;;;6.70;3.40;;;;;;;;;;5110516;28;20027;-73
2022/07/19 10:09:06;;;;;;;10.82;3.60;;;;;;;;;;5116384;28;20119;-73
2022/07/19 10:11:32;;;;;;;7.22;3.65;;;;;;;;;;5121817;28;20022;-73
2022/07/19 10:13:58;;;;;;;9.70;3.83;;;;;;;;;;5115117;28;20084;-74
2022/07/19 10:16:35;;;;;;;13.63;3.70;;;;;;;;;;5121815;28;20020;-73
2022/07/19 10:19:19;;;;;;;9.18;4.07;;;;;;;;;;5114573;28;20501;-75
2022/07/19 10:21:47;;;;;;;8.10;3.75;;;;;;;;;;5111272;28;20307;-74
2022/07/19 10:24:13;;;;;;;11.23;3.80;;;;;;;;;;5121294;28;20599;-75
2022/07/19 10:26:41;;;;;;;10.93;3.85;;;;;;;;;;5121424;28;20016;-78
2022/07/19 10:29:12;;;;;;;8.65;3.70;;;;;;;;;;5121348;28;20027;-73
2022/07/19 10:31:39;;;;;;;11.10;4.03;;;;;;;;;;5121353;28;20027;-73
2022/07/19 10:34:07;;;;;;;7.28;3.70;;;;;;;;;;5121538;28;20031;-73
2022/07/19 10:36:40;;;;;;;10.60;3.80;;;;;;;;;;5103540;28;20374;-74
2022/07/19 10:39:33;;;;;;;9.88;3.55;;;;;;;;;;5114556;28;20216;-76
2022/07/19 10:42:21;;;;;;;14.75;3.80;;;;;;;;;;5121112;28;20032;-75
2022/07/19 10:45:04;;;;;;;9.50;4.00;;;;;;;;;;5116146;28;20100;-73
2022/07/19 10:48:06;;;;;;;13.27;4.60;;;;;;;;;;5121439;28;20040;-74
2022/07/19 10:50:49;;;;;;;9.25;4.00;;;;;;;;;;5110894;28;20027;-73
2022/07/19 10:53:39;;;;;;;13.18;4.30;;;;;;;;;;5103081;28;20027;-73
2022/07/19 10:56:48;;;;;;;12.27;3.67;;;;;;;;;;5111267;28;20111;-73
2022/07/19 10:59:13;;;;;;;11.98;4.10;;;;;;;;;;5119712;28;20051;-74
2022/07/19 11:01:55;;;;;;;10.43;4.13;;;;;;;;;;5121185;28;20301;-75
2022/07/19 11:04:26;;;;;;;14.63;4.10;;;;;;;;;;5108360;28;20027;-74
2022/07/19 11:07:10;;;;;;;10.55;4.00;;;;;;;;;;5116498;28;20023;-73
2022/07/19 11:09:53;;;;;;;;;;;;;;;;;;5121209;28;20023;-75
2022/07/19 11:12:33;;;;;;;13.20;4.07;;;;;;;;;;5121216;28;19907;-79
2022/07/19 11:15:02;;;;;;;10.82;3.80;;;;;;;;;;5108787;28;20065;-73
2022/07/19 11:17:27;;;;;;;13.27;4.35;;;;;;;;;;5120833;28;20065;-73
2022/07/19 11:20:10;;;;;;;10.70;4.10;;;;;;;;;;5120785;28;20091;-73
2022/07/19 11:22:42;;;;;;;8.32;3.97;;;;;;;;;;5121122;28;20312;-73
2022/07/19 11:25:09;;;;;;;12.15;4.10;;;;;;;;;;5102556;28;20227;-74
2022/07/19 11:27:34;;;;;;;10.30;4.00;;;;;;;;;;5120804;28;20281;-72
2022/07/19 11:30:05;;;;;;;7.65;4.10;;;;;;;;;;5121132;28;20043;-74
2022/07/19 11:32:31;;;;;;;11.80;4.00;;;;;;;;;;5120831;28;20083;-74
2022/07/19 11:35:05;;;;;;;10.05;4.05;;;;;;;;;;5120806;28;20382;-73
2022/07/19 11:37:33;;;;;;;12.77;4.00;;;;;;;;;;5120599;28;20366;-73
2022/07/19 11:39:59;;;;;;;11.18;3.97;;;;;;;;;;5113738;28;20012;-75
2022/07/19 11:42:33;;;;;;;11.05;4.28;;;;;;;;;;5120942;28;20414;-73
2022/07/19 11:45:06;;;;;;;10.60;4.18;;;;;;;;;;5120974;28;20019;-73
2022/07/19 11:47:35;;;;;;;9.65;4.20;;;;;;;;;;5102509;28;20039;-73
2022/07/19 11:50:07;;;;;;;12.73;4.35;;;;;;;;;;5120426;28;20027;-74
2022/07/19 11:52:49;;;;;;;19.00;4.10;;;;;;;;;;5121190;28;20092;-73
2022/07/19 11:55:17;;;;;;;12.55;4.13;;;;;;;;;;5118384;28;20024;-73
2022/07/19 11:57:43;;;;;;;11.00;4.07;;;;;;;;;;5124436;28;20099;-73
2022/07/19 12:00:10;;;;;;;8.38;4.00;;;;;;;;;;5124350;28;20019;-73
2022/07/19 12:02:58;;;;;;;12.80;4.20;;;;;;;;;;5124911;28;20015;-73
2022/07/19 12:05:27;;;;;;;11.60;4.20;;;;;;;;;;5117898;28;20054;-73
2022/07/19 12:07:56;;;;;;;12.23;4.00;;;;;;;;;;5124159;28;20039;-73
2022/07/19 12:10:46;;;;;;;15.07;5.85;;;;;;;;;;5123956;28;20023;-73
2022/07/19 12:13:29;;;;;;;13.57;4.00;;;;;;;;;;5100465;28;20094;-73
2022/07/19 12:15:56;;;;;;;9.60;4.07;;;;;;;;;;5112727;28;20116;-73
2022/07/19 12:18:49;;;;;;;10.52;4.10;;;;;;;;;;5123706;28;20023;-72
2022/07/19 12:21:20;;;;;;;14.35;4.35;;;;;;;;;;5123779;28;20031;-73
2022/07/19 12:24:08;;;;;;;8.77;4.10;;;;;;;;;;5123580;28;20355;-73
2022/07/19 12:26:33;;;;;;;8.40;3.90;;;;;;;;;;5099850;28;20051;-73
2022/07/19 12:28:58;;;;;;;11.65;4.47;;;;;;;;;;5118292;28;20023;-73
2022/07/19 12:31:24;;;;;;;15.05;4.20;;;;;;;;;;5123580;28;20023;-74
2022/07/19 12:34:01;;;;;;;13.73;4.40;;;;;;;;;;5123707;28;20292;-73
2022/07/19 12:36:35;;;;;;;15.45;4.32;;;;;;;;;;5123704;28;20255;-73
2022/07/19 12:39:00;;;;;;;11.27;4.65;;;;;;;;;;5123382;28;20023;-73
2022/07/19 12:41:26;;;;;;;12.07;4.57;;;;;;;;;;5116869;28;20330;-73
2022/07/19 12:43:51;;;;;;;10.50;4.18;;;;;;;;;;5123500;28;20015;-74
2022/07/19 12:46:16;;;;;;;9.57;3.88;;;;;;;;;;5123616;28;20208;-73
2022/07/19 12:48:42;;;;;;;11.32;4.30;;;;;;;;;;5123039;28;20051;-72
2022/07/19 12:51:07;;;;;;;11.23;4.60;;;;;;;;;;5120358;28;20378;-73
2022/07/19 12:53:32;;;;;;;8.18;4.18;;;;;;;;;;5123279;28;20023;-74
2022/07/19 12:55:58;;;;;;;13.70;4.57;;;;;;;;;;5123538;28;20054;-73
2022/07/19 13:01:08;;;;;;;13.48;4.40;;;;;;;;;;5122835;28;20030;-73
2022/07/19 13:03:34;;;;;;;11.68;4.50;;;;;;;;;;5121935;28;20028;-74
2022/07/19 13:06:00;;;;;;;10.95;4.03;;;;;;;;;;5114166;28;20026;-73
2022/07/19 13:08:26;;;;;;;12.20;4.47;;;;;;;;;;5122690;28;20032;-73
2022/07/19 13:10:54;;;;;;;11.93;4.50;;;;;;;;;;5123059;28;20031;-74
2022/07/19 13:13:19;;;;;;;10.23;4.90;;;;;;;;;;5122650;28;20394;-74
2022/07/19 13:15:45;;;;;;;14.35;6.28;;;;;;;;;;5116031;28;20034;-75
2022/07/19 13:18:10;;;;;;;10.23;5.78;;;;;;;;;;5122944;28;20046;-73
2022/07/19 13:20:35;;;;;;;11.52;5.50;;;;;;;;;;5122781;28;20106;-74
2022/07/19 13:23:01;;;;;;;11.00;5.60;;;;;;;;;;5122397;28;20037;-73
2022/07/19 13:25:26;;;;;;;10.32;5.05;;;;;;;;;;5122836;28;20039;-73
2022/07/19 13:27:53;;;;;;;13.63;5.60;;;;;;;;;;5122688;28;20023;-76
2022/07/19 13:30:18;;;;;;;12.25;6.28;;;;;;;;;;5122458;28;20032;-72
2022/07/19 13:32:44;;;;;;;13.40;7.13;;;;;;;;;;5122498;28;20023;-74
2022/07/19 13:35:09;;;;;;;9.27;5.75;;;;;;;;;;5122382;28;20046;-73
2022/07/19 13:37:34;;;;;;;9.18;5.75;;;;;;;;;;5097109;28;20040;-75
2022/07/19 13:40:00;;;;;;;16.77;6.97;;;;;;;;;;5118559;28;20042;-73
2022/07/19 13:42:25;;;;;;;16.50;6.40;;;;;;;;;;5101034;28;20246;-73
2022/07/19 13:44:51;;;;;;;13.63;6.05;;;;;;;;;;5122130;28;20323;-75
2022/07/19 13:47:16;;;;;;;12.20;6.35;;;;;;;;;;5122265;28;20039;-73
2022/07/19 13:49:42;;;;;;;12.20;5.30;;;;;;;;;;5122251;28;20133;-74
2022/07/19 13:52:08;;;;;;;8.70;5.13;;;;;;;;;;5118535;28;20142;-74
2022/07/19 13:54:34;;;;;;;11.50;5.40;;;;;;;;;;5121767;28;20391;-74
2022/07/19 13:56:59;;;;;;;11.32;5.28;;;;;;;;;;5121995;28;20050;-74
2022/07/19 13:59:26;;;;;;;12.27;5.03;;;;;;;;;;5121833;28;20020;-74
2022/07/19 14:01:52;;;;;;;10.10;5.18;;;;;;;;;;5122289;28;20077;-74
2022/07/19 14:04:17;;;;;;;9.30;5.10;;;;;;;;;;5117683;28;20253;-74
2022/07/19 14:06:42;;;;;;;11.73;5.45;;;;;;;;;;5115600;28;20015;-74
2022/07/19 14:09:08;;;;;;;10.07;5.40;;;;;;;;;;5116906;28;20024;-74
2022/07/19 14:11:35;;;;;;;9.48;5.40;;;;;;;;;;5121783;28;20311;-74
2022/07/19 14:14:00;;;;;;;8.93;6.05;;;;;;;;;;5121596;28;20358;-73
2022/07/19 14:16:26;;;;;;;9.27;4.75;;;;;;;;;;5115123;28;20023;-76
2022/07/19 14:18:52;;;;;;;11.38;5.18;;;;;;;;;;5121194;28;20282;-74
2022/07/19 14:21:17;;;;;;;10.73;5.38;;;;;;;;;;5121534;28;20016;-75
2022/07/19 14:23:43;;;;;;;10.93;5.30;;;;;;;;;;5121390;28;20019;-75
2022/07/19 14:26:08;;;;;;;22.98;8.23;;;;;;;;;;5121896;28;20019;-73
2022/07/19 14:28:33;;;;;;;17.80;7.97;;;;;;;;;;5121276;28;20081;-74
2022/07/19 14:30:59;;;;;;;16.75;7.18;;;;;;;;;;5121384;28;20020;-73
2022/07/19 14:33:26;;;;;;;14.35;6.28;;;;;;;;;;5121599;28;20019;-74
2022/07/19 14:35:51;;;;;;;7.93;4.60;;;;;;;;;;5095957;28;20185;-74
2022/07/19 14:38:16;;;;;;;14.98;4.88;;;;;;;;;;5120829;28;20042;-74
2022/07/19 14:40:42;;;;;;;17.25;5.82;;;;;;;;;;5114884;28;20065;-73
2022/07/19 14:43:07;;;;;;;9.98;5.05;;;;;;;;;;5121128;28;20031;-73